LFQQ/LIL METAR and TAF weather

Enter ICAO airport designator
Station Type Date Time Source
LFQQ METAR 2019/04/19 08:00 UTC NOAA

LFQQ 190800Z AUTO 07007KT CAVOK 16/06 Q1026 NOSIG


Station Type Date Time Source
LFQQ Decoded METAR 2019/04/19 08:00 UTC NOAA

Lille, France (LFQQ) 50-34N 003-06E 52M
Apr 19, 2019 - 04:00 AM EDT / 2019.04.19 0800 UTC
Wind: from the ENE (070 degrees) at 8 MPH (7 KT):0
Visibility: greater than 7 mile(s):0
Temperature: 60 F (16 C)
Dew Point: 42 F (6 C)
Relative Humidity: 51%
Pressure (altimeter): 30.30 in. Hg (1026 hPa)
ob: LFQQ 190800Z AUTO 07007KT CAVOK 16/06 Q1026 NOSIG
cycle: 8

Station Type Date Time Source
LFQQ TAF 2019/04/19 06:21 UTC NOAA

TAF LFQQ 190500Z 1906/2012 06007KT CAVOK
BECMG 1918/1920 36012KT
BECMG 1922/1924 VRB02KT
BECMG 2008/2011 07012KT

Example: see airport list